Airfield :
LOGIN :

Register | Disclaimer

   EN    FR    IT 

 










Legend :    VFR   Marginal VFR   IFR   Intensive IFR   Very Intensive IFR
Visi :
Ceiling :
>= 8 km
>= 3000ft
5 to 8 km
1000 to 3000 ft
1500m to 5 km
500 to 1000 ft
800 to 1500m
200 to 500 ft
< 800m
< 200 ft
Symbols :   Thunderstorms  Fog  Heavy snow  Heavy precipitations  Wind > 20 kt
SIGMETs :     Misc.  Thunderstorms  Icing  Turbulence  Mountain Waves  Volcanic Ashes







- Airport Elevation : 228 ft
- IATA code : OPO


LPPR - Porto Fr. Sa Carneiro

CURRENT METAR :
  • 250600Z VRB02KT 4000 BR OVC002 17/17 Q1016

EXPIRED METARs :
  • 250530Z 32004KT 2500 BR OVC002 17/17 Q1016
  • 250500Z 32004KT 300V360 3500 BR BKN003 17/17 Q1015
  • 250430Z 33003KT 290V360 3000 BR OVC002 17/17 Q1015
  • 250400Z 32005KT 290V350 3500 BR SCT001 OVC004 17/17 Q1015
  • 250330Z 31005KT 280V340 3500 BR OVC002 17/17 Q1015

TAF TAF LPPR
Valid from the 25 at 06:00 until the 26 at 06:00 UTC


250500Z 2506/2606 VRB03KT 5000 BR SCT002 BKN004
TEMPO 2506/2509 2000 -RA BR SCT000 BKN002
PROB40
TEMPO 2506/2508 0300 DZRA FG VV001
BECMG 2509/2512 28008KT 9999 NSW SCT008 SCT015
TEMPO 2512/2518 6000 BKN008
BECMG 2518/2521 31005KT 8000 BKN004
TEMPO 2521/2606 3000 BR BKN002
No reported NOTAMs for that airfield.



MET'MAP, your aeronautical weather chart ! - Copyright ORBIFLY December 2007 - Disclaimer

ORBIFLY MET'MAP TEAM :

Programming & Development : Alexandra Zaïnal
Concept & Development : Baudouin d'Aumeries
Co-Development & Prog : Marc-Olivier Méhu
Technical & hardware support : Manuel Goepfert

Contact : metmap@orbifly.com




SOURCES & CREDITS :

   NOAA